Moodys, Oklahoma
Current Conditions -  °F | °C
As of 5:15 AM on Sunday 21 Dec 2014 (Local Time) from KTQH Reporting Station
Haze Haze  
Wind Chill: 41°   Ceiling: 3500
Heat Index: 41°   Visibility: 4mi
Dew Point: 41°   Wind: 3mph
Humidity: 100%   Direction: 130°SE
Pressure: 30.11"   Gusts: NA
Location:  36.03°N, 94.96°W
Report Text: KTQH 211115Z AUTO 13003KT 4SM BR SCT027 OVC035 05/05 A3011 RMK AO2
Loading
Personal Weather Stations






























Interactive Weather Map New forecast layout! Learn more

10-Day Weather Forecast

Advertisements
Track Severe Weather on mobile